Time;durP1;ratioP1;P1;durP2;ratioP2;P2;SDS_P1;SDS_P2;PMS_P1;PMS_P2;Temp;Humidity;BMP_temperature;BMP_pressure;BME280_temperature;BME280_humidity;BME280_pressure;Samples;Min_cycle;Max_cycle;Signal;HPM_P1;HPM_P2
2020/12/10 00:01:21;;;;;;;62.28;29.02;;;;;;;2.90;94.11;100810.88;5072143;28;20056;-51
2020/12/10 00:03:49;;;;;;;65.63;29.30;;;;;;;2.91;94.07;100804.28;5072067;28;20052;-51
2020/12/10 00:06:18;;;;;;;62.72;29.80;;;;;;;2.92;94.08;100805.97;5072585;28;20060;-51
2020/12/10 00:08:46;;;;;;;63.28;30.48;;;;;;;2.92;94.05;100811.47;5071527;28;20394;-52
2020/12/10 00:11:13;;;;;;;55.38;27.77;;;;;;;2.89;94.15;100806.47;5072574;28;20442;-50
2020/12/10 00:13:40;;;;;;;63.53;30.67;;;;;;;2.88;94.16;100804.78;5071887;28;20479;-46
2020/12/10 00:16:10;;;;;;;62.08;30.50;;;;;;;2.86;94.08;100806.97;5071759;28;20415;-49
2020/12/10 00:18:38;;;;;;;57.15;28.35;;;;;;;2.84;94.10;100801.69;5071994;28;20076;-46
2020/12/10 00:21:06;;;;;;;60.65;30.88;;;;;;;2.86;94.08;100805.03;5071902;28;20106;-50
2020/12/10 00:23:33;;;;;;;62.63;30.35;;;;;;;2.85;94.22;100799.78;5071782;28;20044;-49
2020/12/10 00:26:01;;;;;;;62.67;30.13;;;;;;;2.86;94.16;100798.69;5072177;28;20048;-48
2020/12/10 00:28:28;;;;;;;48.78;25.55;;;;;;;2.86;94.24;100790.41;5071053;28;20044;-49
2020/12/10 00:30:55;;;;;;;59.50;29.75;;;;;;;2.85;93.93;100794.25;5071728;28;20515;-53
2020/12/10 00:33:22;;;;;;;61.53;29.92;;;;;;;2.83;94.27;100791.75;5071377;28;20517;-50
2020/12/10 00:35:49;;;;;;;58.15;28.92;;;;;;;2.84;94.14;100782.41;5071349;28;20102;-48
2020/12/10 00:38:17;;;;;;;55.72;27.65;;;;;;;2.86;94.09;100783.00;5070777;28;20423;-50
2020/12/10 00:40:44;;;;;;;60.03;28.60;;;;;;;2.86;93.93;100785.75;5071224;28;20407;-48
2020/12/10 00:43:11;;;;;;;58.63;28.45;;;;;;;2.86;94.00;100780.22;5071428;28;20124;-49
2020/12/10 00:45:38;;;;;;;54.35;26.45;;;;;;;2.85;94.01;100781.31;5071150;28;20044;-49
2020/12/10 00:48:04;;;;;;;57.67;27.92;;;;;;;2.85;93.92;100792.34;5071660;28;20498;-50
2020/12/10 00:50:32;;;;;;;53.47;26.77;;;;;;;2.82;94.18;100789.25;5070576;28;20125;-50
2020/12/10 00:52:59;;;;;;;58.05;28.15;;;;;;;2.85;93.90;100791.50;5071681;28;20090;-49
2020/12/10 00:55:28;;;;;;;49.63;25.42;;;;;;;2.82;93.96;100795.59;5070976;28;20037;-52
2020/12/10 00:57:55;;;;;;;52.45;25.98;;;;;;;2.83;93.95;100789.00;5070816;28;20059;-48
2020/12/10 01:00:22;;;;;;;51.00;25.80;;;;;;;2.83;94.00;100780.72;5070877;28;20048;-51
2020/12/10 01:02:49;;;;;;;59.22;29.23;;;;;;;2.82;93.98;100775.47;5071419;28;20044;-47
2020/12/10 01:05:16;;;;;;;52.63;26.60;;;;;;;2.79;94.12;100776.84;5070619;28;20070;-49
2020/12/10 01:07:43;;;;;;;50.83;25.98;;;;;;;2.80;94.21;100769.41;5071341;28;20052;-47
2020/12/10 01:10:10;;;;;;;56.58;27.00;;;;;;;2.80;94.25;100772.97;5070206;28;20055;-48
2020/12/10 01:12:41;;;;;;;51.95;26.88;;;;;;;2.79;94.15;100768.56;5070907;28;20130;-49
2020/12/10 01:15:08;;;;;;;58.70;27.58;;;;;;;2.82;94.32;100775.47;5070960;28;20049;-48
2020/12/10 01:17:35;;;;;;;54.53;27.80;;;;;;;2.82;94.22;100775.47;5070589;28;20132;-48
2020/12/10 01:20:02;;;;;;;64.47;29.85;;;;;;;2.82;94.16;100773.56;5070898;28;20040;-51
2020/12/10 01:22:29;;;;;;;58.92;28.63;;;;;;;2.83;94.28;100772.47;5070822;28;20044;-48
2020/12/10 01:24:55;;;;;;;59.35;28.63;;;;;;;2.83;94.31;100779.91;5070281;28;20055;-48
2020/12/10 01:27:23;;;;;;;51.47;25.30;;;;;;;2.85;94.22;100778.56;5070589;28;20051;-48
2020/12/10 01:29:50;;;;;;;57.17;28.08;;;;;;;2.84;94.17;100779.66;5070714;28;20487;-47
2020/12/10 01:32:17;;;;;;;47.97;25.13;;;;;;;2.88;94.34;100780.81;5069866;28;20053;-49
2020/12/10 01:34:44;;;;;;;58.40;29.33;;;;;;;2.89;94.08;100787.19;5076410;28;20083;-49
2020/12/10 01:37:11;;;;;;;56.80;26.48;;;;;;;2.89;94.08;100785.25;5070636;28;20458;-50
2020/12/10 01:39:38;;;;;;;55.40;28.55;;;;;;;2.88;94.07;100775.31;5070258;28;20057;-55
2020/12/10 01:42:05;;;;;;;53.50;27.58;;;;;;;2.85;94.04;100774.97;5070518;28;20057;-52
2020/12/10 01:44:32;;;;;;;52.10;25.58;;;;;;;2.88;94.02;100771.72;5070982;28;20083;-49
2020/12/10 01:47:00;;;;;;;56.08;27.02;;;;;;;2.89;94.00;100773.41;5069858;28;20041;-48
2020/12/10 01:49:27;;;;;;;55.13;27.30;;;;;;;2.88;93.93;100768.97;5070638;28;20474;-47
2020/12/10 01:51:54;;;;;;;51.22;26.63;;;;;;;2.86;93.87;100777.47;5070153;28;20423;-50
2020/12/10 01:54:20;;;;;;;56.78;27.10;;;;;;;2.88;94.12;100780.00;5070187;28;20083;-49
2020/12/10 01:56:47;;;;;;;51.83;25.60;;;;;;;2.87;93.94;100776.41;5070066;28;20044;-50
2020/12/10 01:59:14;;;;;;;55.40;26.95;;;;;;;2.88;93.99;100769.81;5070778;28;20076;-52
2020/12/10 02:01:41;;;;;;;54.47;26.80;;;;;;;2.89;94.11;100768.72;5069718;28;20410;-49
2020/12/10 02:04:25;;;;;;;48.45;25.50;;;;;;;2.91;93.98;100766.53;5070431;28;20048;-50
2020/12/10 02:06:52;;;;;;;53.30;27.67;;;;;;;2.89;93.79;100763.22;5069872;28;20149;-52
2020/12/10 02:09:19;;;;;;;51.58;26.58;;;;;;;2.88;93.96;100752.44;5070654;28;20142;-53
2020/12/10 02:11:46;;;;;;;58.05;27.10;;;;;;;2.84;94.05;100741.06;5070188;28;20040;-51
2020/12/10 02:14:13;;;;;;;55.50;27.45;;;;;;;2.83;93.84;100741.31;5069992;28;20127;-52
2020/12/10 02:16:40;;;;;;;59.10;27.35;;;;;;;2.83;93.94;100741.31;5070556;28;20385;-52
2020/12/10 02:19:07;;;;;;;55.15;26.95;;;;;;;2.81;94.09;100735.22;5070411;28;20154;-47
2020/12/10 02:21:34;;;;;;;51.83;25.98;;;;;;;2.77;93.99;100732.16;5070013;28;20450;-48
2020/12/10 02:24:02;;;;;;;50.95;24.70;;;;;;;2.77;93.73;100737.66;5070076;28;20063;-54
2020/12/10 02:26:29;;;;;;;55.00;27.92;;;;;;;2.75;93.89;100731.56;5070294;28;20139;-51
2020/12/10 02:29:01;;;;;;;54.83;27.95;;;;;;;2.74;93.88;100738.16;5069478;28;20049;-48
2020/12/10 02:31:29;;;;;;;48.40;25.17;;;;;;;2.72;93.75;100738.41;5070401;28;20055;-53
2020/12/10 02:34:00;;;;;;;45.30;24.13;;;;;;;2.69;93.70;100733.41;5069772;28;20044;-54
2020/12/10 02:36:27;;;;;;;55.83;28.10;;;;;;;2.65;93.52;100739.66;5070055;28;20060;-55
2020/12/10 02:38:54;;;;;;;57.33;27.98;;;;;;;2.62;94.14;100734.63;5069876;28;20414;-51
2020/12/10 02:41:22;;;;;;;56.75;28.15;;;;;;;2.59;93.75;100735.16;5069042;28;20140;-46
2020/12/10 02:43:49;;;;;;;45.90;24.13;;;;;;;2.54;93.95;100732.31;5069143;28;20513;-51
2020/12/10 02:46:16;;;;;;;56.15;27.52;;;;;;;2.49;93.67;100737.72;5070055;28;20056;-49
2020/12/10 02:48:43;;;;;;;52.88;24.27;;;;;;;2.45;93.80;100733.78;5069322;28;20525;-51
2020/12/10 02:51:10;;;;;;;48.78;25.30;;;;;;;2.39;93.88;100735.66;5070291;28;20048;-51
2020/12/10 02:53:37;;;;;;;61.90;28.48;;;;;;;2.37;94.03;100732.31;5069756;28;20051;-51
2020/12/10 02:56:08;;;;;;;44.00;22.92;;;;;;;2.36;93.96;100730.63;5069739;28;20582;-53
2020/12/10 02:58:35;;;;;;;51.92;25.33;;;;;;;2.34;94.06;100735.56;5069891;28;20527;-51
2020/12/10 03:01:03;;;;;;;49.17;24.95;;;;;;;2.33;94.37;100731.13;5069787;28;20091;-51
2020/12/10 03:03:29;;;;;;;48.30;25.92;;;;;;;2.35;94.66;100728.97;5068127;28;20048;-49
2020/12/10 03:05:57;;;;;;;51.65;24.95;;;;;;;2.37;94.41;100735.91;5070070;28;20072;-48
2020/12/10 03:08:24;;;;;;;51.13;25.55;;;;;;;2.36;94.50;100741.66;5069854;28;20119;-53
2020/12/10 03:10:52;;;;;;;49.78;26.17;;;;;;;2.35;94.62;100732.56;5069322;28;20102;-52
2020/12/10 03:13:19;;;;;;;52.83;26.83;;;;;;;2.41;94.51;100733.44;5072490;28;20561;-50
2020/12/10 03:15:47;;;;;;;49.55;25.77;;;;;;;2.43;94.49;100734.03;5072704;28;20423;-46
2020/12/10 03:18:14;;;;;;;54.42;27.52;;;;;;;2.42;94.44;100730.44;5073095;28;20048;-50
2020/12/10 03:20:41;;;;;;;47.92;24.45;;;;;;;2.43;94.73;100723.88;5073188;28;20499;-50
2020/12/10 03:23:08;;;;;;;49.92;25.40;;;;;;;2.45;94.58;100720.03;5073187;28;20139;-51
2020/12/10 03:25:35;;;;;;;53.30;26.92;;;;;;;2.45;94.80;100711.78;5072461;28;20049;-54
2020/12/10 03:28:02;;;;;;;48.88;24.80;;;;;;;2.47;94.46;100706.84;5073246;28;20163;-49
2020/12/10 03:30:28;;;;;;;50.45;24.10;;;;;;;2.49;94.49;100707.44;5072687;28;20505;-48
2020/12/10 03:32:56;;;;;;;50.60;25.70;;;;;;;2.49;94.36;100711.03;5072836;28;20060;-52
2020/12/10 03:35:23;;;;;;;51.60;25.65;;;;;;;2.49;94.63;100707.44;5072889;28;20124;-49
2020/12/10 03:37:50;;;;;;;53.10;26.98;;;;;;;2.54;94.69;100707.53;5072561;28;20420;-46
2020/12/10 03:40:16;;;;;;;51.72;25.95;;;;;;;2.53;94.59;100705.84;5072723;28;20044;-51
2020/12/10 03:42:43;;;;;;;50.15;26.13;;;;;;;2.55;94.23;100706.44;5072778;28;20098;-50
2020/12/10 03:45:10;;;;;;;52.10;25.92;;;;;;;2.52;94.46;100702.28;5071971;28;20472;-50
2020/12/10 03:47:37;;;;;;;47.40;24.80;;;;;;;2.57;94.38;100698.78;5072869;28;20506;-47
2020/12/10 03:50:05;;;;;;;50.80;25.17;;;;;;;2.54;94.45;100699.25;5072589;28;20058;-52
2020/12/10 03:52:32;;;;;;;45.55;23.95;;;;;;;2.54;94.38;100688.25;5072280;28;20051;-49
2020/12/10 03:54:59;;;;;;;50.00;24.70;;;;;;;2.54;94.50;100691.00;5072351;28;20040;-49
2020/12/10 03:57:26;;;;;;;48.20;24.50;;;;;;;2.55;94.29;100695.44;5072601;28;20049;-50
2020/12/10 03:59:53;;;;;;;48.92;23.88;;;;;;;2.56;94.26;100691.59;5072391;28;20135;-51
2020/12/10 04:02:20;;;;;;;47.22;24.10;;;;;;;2.53;94.13;100692.94;5072105;28;20480;-47
2020/12/10 04:04:48;;;;;;;44.92;23.95;;;;;;;2.54;94.38;100700.09;5073570;28;20053;-51
2020/12/10 04:07:16;;;;;;;48.78;25.23;;;;;;;2.55;94.12;100698.19;5072456;28;20052;-48
2020/12/10 04:09:43;;;;;;;45.42;24.05;;;;;;;2.56;94.10;100691.59;5073325;28;20110;-48
2020/12/10 04:12:10;;;;;;;49.30;23.70;;;;;;;2.52;94.34;100698.69;5072954;28;20118;-48
2020/12/10 04:14:37;;;;;;;45.60;24.08;;;;;;;2.57;94.27;100693.25;5072899;28;20055;-48
2020/12/10 04:17:04;;;;;;;45.83;24.85;;;;;;;2.56;93.97;100691.59;5072832;28;20075;-51
2020/12/10 04:19:31;;;;;;;47.28;24.33;;;;;;;2.57;93.98;100693.25;5072928;28;20541;-50
2020/12/10 04:21:58;;;;;;;44.63;24.50;;;;;;;2.60;94.12;100698.28;5072239;28;20122;-48
2020/12/10 04:24:25;;;;;;;40.33;22.58;;;;;;;2.62;94.07;100701.59;5072480;28;20056;-49
2020/12/10 04:26:52;;;;;;;41.33;23.25;;;;;;;2.64;93.90;100688.41;5072525;28;20055;-45
2020/12/10 04:29:19;;;;;;;42.08;22.38;;;;;;;2.64;93.93;100696.66;5072618;28;20041;-49
2020/12/10 04:31:46;;;;;;;44.17;24.00;;;;;;;2.66;93.95;100700.00;5072478;28;20052;-50
2020/12/10 04:34:14;;;;;;;49.22;24.50;;;;;;;2.67;93.91;100698.91;5072372;28;20135;-50
2020/12/10 04:36:41;;;;;;;49.03;24.52;;;;;;;2.68;93.80;100706.09;5072271;28;20092;-45
2020/12/10 04:39:08;;;;;;;39.40;21.95;;;;;;;2.67;93.70;100702.50;5072817;28;20045;-53
2020/12/10 04:41:37;;;;;;;44.50;22.13;;;;;;;2.69;93.69;100705.00;5072121;28;20062;-49
2020/12/10 04:44:03;;;;;;;44.88;23.15;;;;;;;2.69;93.71;100707.78;5072503;28;20091;-50
2020/12/10 04:46:31;;;;;;;46.08;24.58;;;;;;;2.66;93.72;100706.34;5072576;28;20056;-51
2020/12/10 04:49:01;;;;;;;41.15;22.50;;;;;;;2.66;93.49;100703.59;5071473;28;20144;-48
2020/12/10 04:51:28;;;;;;;43.85;22.05;;;;;;;2.66;93.78;100705.50;5072325;28;20055;-53
2020/12/10 04:53:56;;;;;;;39.92;21.38;;;;;;;2.63;93.65;100711.53;5072111;28;20055;-51
2020/12/10 04:56:23;;;;;;;38.30;21.83;;;;;;;2.63;93.47;100720.63;5072104;28;20076;-49
2020/12/10 04:58:51;;;;;;;40.55;21.88;;;;;;;2.65;93.54;100712.94;5072051;28;20463;-53
2020/12/10 05:01:19;;;;;;;40.17;22.52;;;;;;;2.64;93.60;100719.53;5072223;28;20052;-50
2020/12/10 05:03:46;;;;;;;37.97;21.55;;;;;;;2.65;93.52;100717.63;5071269;28;20036;-51
2020/12/10 05:06:14;;;;;;;41.03;22.50;;;;;;;2.64;93.46;100713.19;5072191;28;20055;-51
2020/12/10 05:08:42;;;;;;;41.75;21.88;;;;;;;2.61;93.53;100716.44;5071803;28;20119;-53
2020/12/10 05:11:10;;;;;;;39.10;21.02;;;;;;;2.63;93.48;100719.78;5071510;28;20063;-52
2020/12/10 05:13:38;;;;;;;37.38;19.58;;;;;;;2.63;93.45;100719.78;5071659;28;20135;-49
2020/12/10 05:16:20;;;;;;;32.33;17.95;;;;;;;2.62;93.33;100721.69;5072118;28;20040;-53
2020/12/10 05:18:47;;;;;;;33.95;18.85;;;;;;;2.60;93.18;100726.63;5072301;28;20044;-48
2020/12/10 05:21:15;;;;;;;32.30;18.27;;;;;;;2.63;92.98;100728.03;5072168;28;20076;-49
2020/12/10 05:23:42;;;;;;;34.22;18.67;;;;;;;2.63;93.32;100728.03;5071074;28;20078;-45
2020/12/10 05:26:10;;;;;;;36.97;20.48;;;;;;;2.65;93.08;100732.22;5071889;28;20136;-48
2020/12/10 05:28:42;;;;;;;36.50;20.23;;;;;;;2.63;93.03;100737.16;5071317;28;20131;-51
2020/12/10 05:31:11;;;;;;;;;;;;;;;2.56;93.06;100733.75;5071558;28;20071;-45
2020/12/10 05:33:51;;;;;;;35.58;19.45;;;;;;;2.54;93.08;100743.34;5071432;28;19920;-50
2020/12/10 05:36:18;;;;;;;34.05;18.27;;;;;;;2.54;93.18;100744.16;5059899;28;20141;-51
2020/12/10 05:39:00;;;;;;;33.58;18.52;;;;;;;2.55;93.05;100743.09;5070850;28;20041;-53
2020/12/10 05:41:27;;;;;;;31.23;18.30;;;;;;;2.55;93.16;100743.09;5071726;28;20106;-52
2020/12/10 05:43:55;;;;;;;36.80;18.73;;;;;;;2.55;93.05;100742.25;5071715;28;20293;-49
2020/12/10 05:46:25;;;;;;;35.72;20.10;;;;;;;2.52;92.87;100740.81;5071158;28;20135;-47
2020/12/10 05:48:52;;;;;;;32.30;17.77;;;;;;;2.49;92.88;100746.00;5071664;28;20040;-54
2020/12/10 05:51:21;;;;;;;35.33;19.25;;;;;;;2.47;93.13;100753.66;5071767;28;20522;-48
2020/12/10 05:53:49;;;;;;;30.38;16.63;;;;;;;2.43;92.84;100754.16;5071472;28;20576;-48
2020/12/10 05:56:18;;;;;;;34.83;18.42;;;;;;;2.38;93.00;100756.84;5071649;28;20050;-49
2020/12/10 05:58:50;;;;;;;29.02;15.63;;;;;;;2.34;92.97;100758.41;5071213;28;20056;-52
2020/12/10 06:01:44;;;;;;;31.88;16.63;;;;;;;2.32;92.72;100759.75;5071142;28;20044;-50
2020/12/10 06:04:13;;;;;;;28.63;16.50;;;;;;;2.23;92.88;100752.94;5067286;28;20408;-52
2020/12/10 06:06:40;;;;;;;30.63;16.65;;;;;;;2.20;92.77;100757.03;5070653;28;20036;-50
2020/12/10 06:09:08;;;;;;;29.95;16.88;;;;;;;2.18;92.62;100750.97;5071566;28;20115;-46
2020/12/10 06:11:35;;;;;;;30.25;17.15;;;;;;;2.20;92.78;100742.47;5071053;28;20061;-48
2020/12/10 06:14:03;;;;;;;33.28;18.30;;;;;;;2.23;93.02;100745.53;5070780;28;20049;-47
2020/12/10 06:16:31;;;;;;;36.70;19.60;;;;;;;2.17;92.68;100751.19;5070787;28;20127;-51
2020/12/10 06:19:03;;;;;;;36.75;19.17;;;;;;;2.15;93.06;100747.84;5070404;28;20054;-50
2020/12/10 06:21:34;;;;;;;;;;;;;;;2.09;92.87;100752.41;5070948;28;20135;-47
2020/12/10 06:24:34;;;;;;;32.08;17.33;;;;;;;2.06;93.07;100748.25;5071429;28;20282;-49
2020/12/10 06:27:20;;;;;;;38.38;19.73;;;;;;;2.05;92.93;100756.75;5070291;28;20139;-52
2020/12/10 06:29:47;;;;;;;35.40;18.70;;;;;;;2.05;93.29;100762.25;5071391;28;20041;-49
2020/12/10 06:32:14;;;;;;;32.17;19.38;;;;;;;2.09;93.00;100763.44;5070756;28;20052;-48
2020/12/10 06:34:47;;;;;;;33.63;18.17;;;;;;;2.08;92.98;100775.53;5070520;28;20040;-48
2020/12/10 06:37:25;;;;;;;31.20;17.55;;;;;;;2.05;92.81;100765.00;5070998;28;20040;-50
2020/12/10 06:39:56;;;;;;;34.22;18.50;;;;;;;1.96;92.88;100769.25;5071010;28;20075;-52
2020/12/10 06:42:23;;;;;;;32.70;18.52;;;;;;;1.95;92.75;100773.06;5070151;28;20048;-49
2020/12/10 06:44:51;;;;;;;34.92;18.77;;;;;;;1.93;92.76;100766.97;5069518;28;20415;-49
2020/12/10 06:47:18;;;;;;;29.92;17.15;;;;;;;1.96;92.96;100764.56;5072029;28;20469;-51
2020/12/10 06:49:45;;;;;;;37.30;18.80;;;;;;;1.96;93.03;100769.25;5074291;28;20041;-52
2020/12/10 06:52:18;;;;;;;39.03;20.30;;;;;;;1.93;93.08;100770.56;5074071;28;20059;-47
2020/12/10 06:55:08;;;;;;;38.75;21.13;;;;;;;1.91;92.93;100767.22;5074429;28;20418;-49
2020/12/10 06:58:10;;;;;;;40.35;20.60;;;;;;;1.89;92.70;100774.88;5074348;28;20131;-48
2020/12/10 07:00:45;;;;;;;39.60;21.55;;;;;;;1.83;93.05;100781.34;5074710;28;20056;-47
2020/12/10 07:03:20;;;;;;;34.95;19.77;;;;;;;1.84;92.86;100783.00;5073691;28;20122;-50
2020/12/10 07:05:47;;;;;;;33.10;18.88;;;;;;;1.86;92.80;100788.28;5074734;28;20131;-48
2020/12/10 07:08:17;;;;;;;34.38;18.05;;;;;;;1.86;92.93;100780.03;5074126;28;20048;-48
2020/12/10 07:10:46;;;;;;;38.17;21.10;;;;;;;1.85;92.49;100781.09;5073819;28;20048;-45
2020/12/10 07:13:15;;;;;;;36.25;20.23;;;;;;;1.82;92.42;100785.16;5073716;28;20060;-50
2020/12/10 07:15:48;;;;;;;38.22;21.40;;;;;;;1.76;92.26;100782.56;5074449;28;20044;-47
2020/12/10 07:18:14;;;;;;;;;;;;;;;1.71;92.08;100777.78;5074436;28;20048;-49
2020/12/10 07:20:42;;;;;;;35.35;20.23;;;;;;;1.65;92.43;100776.84;5074203;28;19920;-50
2020/12/10 07:23:09;;;;;;;35.70;19.35;;;;;;;1.66;92.44;100784.03;5073092;28;20148;-49
2020/12/10 07:25:36;;;;;;;35.25;19.15;;;;;;;1.65;92.62;100779.59;5074065;28;20044;-50
2020/12/10 07:28:03;;;;;;;34.67;19.83;;;;;;;1.60;92.23;100778.69;5073613;28;20136;-51
2020/12/10 07:30:31;;;;;;;33.00;18.50;;;;;;;1.59;91.95;100779.75;5073498;28;20072;-54
2020/12/10 07:32:59;;;;;;;37.65;20.40;;;;;;;1.55;92.28;100773.91;5073614;28;20056;-48
2020/12/10 07:35:28;;;;;;;36.65;19.67;;;;;;;1.56;92.39;100780.22;5073820;28;20052;-47
2020/12/10 07:37:56;;;;;;;35.38;19.75;;;;;;;1.56;92.22;100785.72;5072993;28;20041;-54
2020/12/10 07:40:23;;;;;;;34.38;18.67;;;;;;;1.54;92.58;100776.88;5073808;28;20057;-53
2020/12/10 07:42:50;;;;;;;34.05;19.42;;;;;;;1.50;92.25;100775.69;5073315;28;20053;-50
2020/12/10 07:45:20;;;;;;;34.08;18.40;;;;;;;1.50;92.20;100779.28;5072906;28;20088;-47
2020/12/10 07:47:55;;;;;;;36.90;20.50;;;;;;;1.48;92.30;100778.69;5073375;28;20056;-48
2020/12/10 07:50:22;;;;;;;31.83;17.83;;;;;;;1.48;92.50;100777.84;5073705;28;20036;-45
2020/12/10 07:52:50;;;;;;;31.45;18.15;;;;;;;1.46;91.99;100789.06;5072725;28;20110;-46
2020/12/10 07:55:21;;;;;;;34.95;18.35;;;;;;;1.44;92.26;100793.97;5073117;28;20049;-47
2020/12/10 07:58:01;;;;;;;30.55;17.73;;;;;;;1.45;92.07;100784.66;5073347;28;20053;-48
2020/12/10 08:00:30;;;;;;;30.38;18.05;;;;;;;1.43;92.43;100792.31;5072465;28;20040;-47
2020/12/10 08:03:05;;;;;;;32.00;17.83;;;;;;;1.43;92.45;100788.72;5073359;28;20049;-47
2020/12/10 08:05:33;;;;;;;33.58;18.60;;;;;;;1.43;92.55;100788.72;5072216;28;20457;-50
2020/12/10 08:08:01;;;;;;;32.00;18.15;;;;;;;1.42;92.68;100789.78;5073270;28;20070;-47
2020/12/10 08:10:30;;;;;;;32.85;18.90;;;;;;;1.42;92.32;100796.13;5072274;28;20444;-48
2020/12/10 08:13:10;;;;;;;31.05;17.08;;;;;;;1.41;92.31;100794.44;5072724;28;20148;-48
2020/12/10 08:15:40;;;;;;;34.28;18.73;;;;;;;1.42;92.21;100785.13;5072385;28;20143;-48
2020/12/10 08:18:08;;;;;;;32.08;18.38;;;;;;;1.44;92.28;100788.47;5073041;28;20122;-52
2020/12/10 08:20:36;;;;;;;33.13;19.02;;;;;;;1.43;92.36;100797.81;5072165;28;20045;-53
2020/12/10 08:23:03;;;;;;;33.35;18.85;;;;;;;1.46;92.44;100797.31;5072927;28;20118;-47
2020/12/10 08:25:30;;;;;;;34.90;19.25;;;;;;;1.47;91.95;100796.25;5071861;28;20488;-46
2020/12/10 08:27:57;;;;;;;33.70;18.20;;;;;;;1.47;92.48;100798.16;5072290;28;20123;-49
2020/12/10 08:30:24;;;;;;;35.70;18.55;;;;;;;1.50;92.16;100798.53;5072136;28;20068;-50
2020/12/10 08:32:52;;;;;;;35.38;19.00;;;;;;;1.50;92.09;100803.19;5072774;28;20139;-52
2020/12/10 08:35:19;;;;;;;38.08;19.50;;;;;;;1.48;92.26;100792.41;5071533;28;20105;-50
2020/12/10 08:37:47;;;;;;;36.92;18.00;;;;;;;1.50;92.24;100795.78;5072816;28;20053;-48
2020/12/10 08:40:24;;;;;;;34.47;19.40;;;;;;;1.53;91.81;100798.03;5071519;28;20049;-49
2020/12/10 08:42:51;;;;;;;38.83;19.63;;;;;;;1.52;92.18;100801.03;5072576;28;20356;-48
2020/12/10 08:45:29;;;;;;;37.28;19.90;;;;;;;1.51;91.76;100800.19;5072085;28;20386;-50
2020/12/10 08:47:59;;;;;;;39.33;20.90;;;;;;;1.51;91.77;100797.44;5071977;28;20049;-51
2020/12/10 08:50:27;;;;;;;34.55;18.52;;;;;;;1.53;92.21;100809.03;5071980;28;20400;-50
2020/12/10 08:53:09;;;;;;;34.15;19.23;;;;;;;1.53;92.06;100803.53;5072183;28;20140;-48
2020/12/10 08:55:41;;;;;;;36.60;19.35;;;;;;;1.53;91.91;100803.53;5071232;28;20072;-51
2020/12/10 08:58:13;;;;;;;33.13;18.52;;;;;;;1.51;92.09;100796.59;5072232;28;20161;-52
2020/12/10 09:00:40;;;;;;;33.47;18.03;;;;;;;1.51;91.62;100797.44;5072010;28;20052;-49
2020/12/10 09:03:09;;;;;;;37.08;18.65;;;;;;;1.51;91.95;100797.44;5060795;28;20056;-54
2020/12/10 09:05:36;;;;;;;30.23;15.95;;;;;;;1.57;91.92;100793.75;5071580;28;20140;-50
2020/12/10 09:08:03;;;;;;;35.67;19.00;;;;;;;1.54;91.99;100802.47;5071935;28;20048;-48
2020/12/10 09:10:30;;;;;;;32.70;18.55;;;;;;;1.56;91.37;100799.47;5071031;28;20075;-50
2020/12/10 09:12:58;;;;;;;34.53;19.30;;;;;;;1.64;91.60;100805.44;5071747;28;20041;-49
2020/12/10 09:15:43;;;;;;;35.80;18.52;;;;;;;1.68;91.37;100814.88;5071047;28;20045;-49
2020/12/10 09:18:11;;;;;;;32.85;17.80;;;;;;;1.76;91.57;100812.84;5071483;28;20041;-49
2020/12/10 09:20:40;;;;;;;34.42;19.10;;;;;;;1.81;91.66;100810.16;5072054;28;20528;-51
2020/12/10 09:23:07;;;;;;;34.60;18.83;;;;;;;1.83;91.22;100808.84;5070655;28;20040;-52
2020/12/10 09:25:33;;;;;;;36.35;18.73;;;;;;;1.84;90.83;100809.69;5071872;28;20135;-52
2020/12/10 09:28:00;;;;;;;34.25;19.60;;;;;;;1.79;90.98;100812.34;5071146;28;20059;-51
2020/12/10 09:30:27;;;;;;;31.73;17.92;;;;;;;1.80;90.80;100814.84;5071262;28;20531;-49
2020/12/10 09:32:54;;;;;;;33.58;19.02;;;;;;;1.81;90.44;100812.91;5071420;28;20068;-52
2020/12/10 09:35:22;;;;;;;32.30;18.67;;;;;;;1.76;90.43;100810.09;5071557;28;20110;-48
2020/12/10 09:37:49;;;;;;;35.88;19.02;;;;;;;1.74;90.48;100815.81;5070657;28;20460;-50
2020/12/10 09:40:17;;;;;;;34.65;18.08;;;;;;;1.75;90.51;100805.66;5071553;28;20581;-47
2020/12/10 09:42:45;;;;;;;32.40;17.15;;;;;;;1.75;90.77;100811.16;5071193;28;20042;-49
2020/12/10 09:45:13;;;;;;;33.10;17.50;;;;;;;1.72;90.63;100802.31;5070601;28;20044;-48
2020/12/10 09:47:41;;;;;;;36.88;19.58;;;;;;;1.75;90.64;100805.66;5070974;28;20052;-46
2020/12/10 09:50:18;;;;;;;34.28;19.15;;;;;;;1.75;90.46;100811.16;5071102;28;20411;-49
2020/12/10 09:52:53;;;;;;;35.50;19.38;;;;;;;1.76;90.34;100805.41;5070612;28;20505;-48
2020/12/10 09:55:36;;;;;;;31.17;16.08;;;;;;;1.80;90.60;100808.53;5071455;28;20542;-51
2020/12/10 09:58:03;;;;;;;32.92;17.38;;;;;;;1.84;90.46;100809.69;5070831;28;20059;-53
2020/12/10 10:00:30;;;;;;;34.33;19.38;;;;;;;1.84;90.08;100810.53;5071113;28;20098;-52
2020/12/10 10:02:57;;;;;;;32.40;18.80;;;;;;;1.87;90.32;100810.03;5070847;28;20492;-50
2020/12/10 10:05:24;;;;;;;36.50;19.13;;;;;;;1.92;90.03;100812.06;5070662;28;20461;-50
2020/12/10 10:07:52;;;;;;;36.55;19.27;;;;;;;1.98;90.44;100802.84;5071055;28;20045;-52
2020/12/10 10:10:19;;;;;;;36.55;19.08;;;;;;;2.25;90.92;100805.84;5071023;28;20792;-50
2020/12/10 10:12:45;;;;;;;35.63;19.05;;;;;;;2.40;89.86;100801.47;5070711;28;20550;-57
2020/12/10 10:15:12;;;;;;;32.95;18.23;;;;;;;2.47;89.06;100792.22;5071130;28;20507;-51
2020/12/10 10:17:39;;;;;;;35.63;18.83;;;;;;;2.57;88.91;100786.91;5070953;28;20044;-49
2020/12/10 10:20:06;;;;;;;34.22;18.92;;;;;;;2.67;89.05;100787.91;5070238;28;20056;-47
2020/12/10 10:22:38;;;;;;;34.85;18.02;;;;;;;2.72;88.43;100798.19;5072999;28;20415;-47
2020/12/10 10:25:06;;;;;;;35.47;20.00;;;;;;;2.65;87.86;100792.84;5074944;28;20048;-51
2020/12/10 10:27:33;;;;;;;34.03;18.70;;;;;;;2.63;88.01;100799.66;5074797;28;20057;-50
2020/12/10 10:30:00;;;;;;;33.38;18.73;;;;;;;2.63;88.04;100796.91;5074683;28;20080;-47
2020/12/10 10:32:27;;;;;;;33.40;18.95;;;;;;;2.64;87.88;100795.81;5075200;28;20141;-52
2020/12/10 10:34:54;;;;;;;34.28;18.90;;;;;;;2.67;87.76;100798.09;5074116;28;20055;-48
2020/12/10 10:37:21;;;;;;;33.67;18.17;;;;;;;2.69;87.59;100798.69;5074465;28;20493;-47
2020/12/10 10:39:48;;;;;;;38.08;19.35;;;;;;;2.76;87.43;100797.44;5073941;28;20048;-48
2020/12/10 10:42:16;;;;;;;29.63;16.17;;;;;;;2.88;87.45;100796.53;5075020;28;20044;-49
2020/12/10 10:44:43;;;;;;;32.92;18.08;;;;;;;3.00;87.14;100802.78;5074469;28;20083;-50
2020/12/10 10:47:09;;;;;;;33.03;18.15;;;;;;;3.24;87.15;100795.16;5074298;28;20061;-50
2020/12/10 10:49:37;;;;;;;33.47;18.33;;;;;;;3.40;86.00;100792.38;5074371;28;20446;-46
2020/12/10 10:52:03;;;;;;;30.40;17.58;;;;;;;3.35;84.74;100789.56;5074750;28;20372;-47
2020/12/10 10:54:30;;;;;;;32.70;18.33;;;;;;;3.39;84.92;100789.91;5074022;28;20041;-50
2020/12/10 10:56:57;;;;;;;29.83;17.08;;;;;;;3.47;85.17;100781.19;5074837;28;20044;-47
2020/12/10 10:59:24;;;;;;;32.60;18.52;;;;;;;3.39;84.62;100792.66;5074249;28;20135;-47
2020/12/10 11:01:53;;;;;;;33.38;18.55;;;;;;;3.30;84.81;100791.41;5074001;28;20041;-51
2020/12/10 11:04:20;;;;;;;33.88;18.42;;;;;;;3.26;85.38;100788.31;5074299;28;20052;-47
2020/12/10 11:06:50;;;;;;;30.13;16.65;;;;;;;3.45;85.68;100784.19;5074360;28;20119;-51
2020/12/10 11:09:17;;;;;;;28.40;16.83;;;;;;;3.72;85.18;100781.53;5074014;28;20053;-52
2020/12/10 11:11:44;;;;;;;28.83;16.42;;;;;;;3.95;84.89;100782.38;5073688;28;20098;-47
2020/12/10 11:14:11;;;;;;;29.52;16.88;;;;;;;4.28;83.87;100784.13;5074352;28;20060;-50
2020/12/10 11:16:38;;;;;;;29.00;16.42;;;;;;;4.75;82.62;100787.94;5073190;28;20067;-49
2020/12/10 11:19:05;;;;;;;28.48;17.05;;;;;;;5.11;80.69;100785.47;5074169;28;20053;-48
2020/12/10 11:21:32;;;;;;;27.50;16.38;;;;;;;5.32;79.50;100786.44;5073842;28;20131;-51
2020/12/10 11:23:59;;;;;;;27.15;16.00;;;;;;;5.56;79.83;100773.03;5073813;28;20052;-53